Nearby METAR Reports

 

CYOW - Ottawa Intl, Ontario, Canada
Distance from station: N 33km
Updated: Wed, 11-Dec-2019 5:00pm EST
Partly cloudy
Partly cloudy
 Wind from SW
Wind: SW 26 km/h, Gust: 37 km/h
Temperature: -4°C
Wind Chill: -11°C
Dew Point: -12°C
Humidity: 54%
Barometer: 30.08 inHg , 1018.6 hPa
Clouds: Partly cloudy
Visibility: 24 km
Cloud details: Partly cloudy 1737 m
Partly cloudy 3353 m
2019/12/11 22:00 CYOW 112200Z 23014G20KT 15SM SCT057 SCT110 M04/M12 A3008 RMK SC3AC1 SLP196
CYGK - Kingston Arpt, Ontario, Canada
Distance from station: SW 117km
Updated: Wed, 11-Dec-2019 5:00pm EST
Low drifting snow, Mostly cloudy
Low drifting snow, Mostly cloudy
 Wind from WSW
Wind: WSW 28 km/h, Gust: 43 km/h
Temperature: -3°C
Wind Chill: -10°C
Dew Point: -11°C
Humidity: 54%
Barometer: 30.19 inHg , 1022.4 hPa
Summary: Low Drifting Snow
Clouds: Mostly cloudy
Visibility: 16 km
Cloud details: Few Clouds 457 m
Mostly cloudy 1829 m
2019/12/11 22:00 CYGK 112200Z 25015G23KT 10SM DRSN FEW015 BKN060 M03/M11 A3019 RMK CU2SC4 SLP230
KMSS - Massena, New York, USA
Distance from station: E 62km
Updated: Wed, 11-Dec-2019 4:53pm EST
Mostly cloudy
Mostly cloudy
 Wind from SW
Wind: SW 22 km/h
Temperature: -3°C
Wind Chill: -9°C
Dew Point: -8°C
Humidity: 69%
Barometer: 30.13 inHg , 1020.3 hPa
Clouds: Mostly cloudy
Visibility: 16 km
Cloud details: Mostly cloudy 3658 m
2019/12/11 21:53 KMSS 112153Z AUTO 23012KT 10SM BKN120 M03/M08 A3013 RMK AO2 SNE19 SLP210 P0000 T10331078